createdAt,value
2019-01-31T00:00:44.215Z,24.90
2019-01-31T00:03:18.782Z,24.70
2019-01-31T00:05:59.263Z,24.80
2019-01-31T00:08:46.385Z,25.50
2019-01-31T00:11:36.707Z,25.40
2019-01-31T00:14:23.693Z,25.10
2019-01-31T00:17:19.646Z,25.00
2019-01-31T00:19:54.025Z,25.10
2019-01-31T00:22:46.463Z,25.00
2019-01-31T00:25:33.057Z,25.20
2019-01-31T00:28:21.115Z,25.20
2019-01-31T00:31:07.733Z,25.50
2019-01-31T00:33:45.493Z,25.20
2019-01-31T00:36:39.927Z,24.90
2019-01-31T00:39:26.548Z,25.10
2019-01-31T00:42:01.001Z,24.90
2019-01-31T00:44:47.395Z,24.90
2019-01-31T00:47:24.840Z,24.80
2019-01-31T00:50:14.791Z,24.80
2019-01-31T00:53:02.744Z,24.50
2019-01-31T00:55:43.559Z,24.70
2019-01-31T00:58:18.027Z,24.50
2019-01-31T01:01:05.341Z,24.50
2019-01-31T01:03:58.408Z,24.70
2019-01-31T01:06:35.792Z,24.20
2019-01-31T01:09:10.516Z,24.20
2019-01-31T01:11:42.246Z,24.40
2019-01-31T01:14:35.184Z,24.10
2019-01-31T01:17:12.643Z,24.20
2019-01-31T01:20:04.231Z,24.00
2019-01-31T01:22:51.484Z,24.30
2019-01-31T01:25:43.914Z,24.40
2019-01-31T01:28:16.014Z,24.50
2019-01-31T01:31:21.275Z,24.80
2019-01-31T01:34:11.124Z,24.90
2019-01-31T01:36:48.532Z,25.10
2019-01-31T01:39:35.206Z,24.90
2019-01-31T01:42:06.887Z,24.80
2019-01-31T01:44:50.500Z,24.70
2019-01-31T01:47:28.452Z,24.70
2019-01-31T01:50:00.230Z,24.70
2019-01-31T01:52:34.586Z,24.50
2019-01-31T01:55:27.669Z,24.50
2019-01-31T01:58:11.391Z,24.90
2019-01-31T02:01:02.787Z,25.20
2019-01-31T02:03:52.392Z,24.90
2019-01-31T02:06:30.243Z,24.80
2019-01-31T02:09:10.943Z,24.90
2019-01-31T02:11:48.343Z,25.00
2019-01-31T02:14:20.035Z,25.20
2019-01-31T02:16:54.719Z,25.00
2019-01-31T02:19:28.995Z,25.10
2019-01-31T02:22:09.588Z,25.30
2019-01-31T02:24:43.962Z,25.00
2019-01-31T02:27:27.503Z,25.50
2019-01-31T02:30:04.969Z,25.20
2019-01-31T02:32:51.618Z,25.40
2019-01-31T02:35:28.844Z,25.70
2019-01-31T02:38:03.547Z,24.80
2019-01-31T02:40:47.134Z,24.70
2019-01-31T02:43:21.658Z,24.50
2019-01-31T02:45:56.305Z,24.80
2019-01-31T02:48:40.221Z,24.40
2019-01-31T02:51:20.575Z,24.10
2019-01-31T02:53:58.062Z,24.10
2019-01-31T02:56:35.529Z,24.00
2019-01-31T02:59:16.268Z,23.90
2019-01-31T03:01:50.915Z,24.00
2019-01-31T03:04:25.432Z,24.00
2019-01-31T03:06:57.124Z,24.10
2019-01-31T03:09:28.845Z,24.20
2019-01-31T03:12:30.654Z,24.40
2019-01-31T03:15:02.395Z,24.50
2019-01-31T03:17:36.698Z,24.30
2019-01-31T03:20:11.237Z,24.10
2019-01-31T03:22:51.877Z,24.10
2019-01-31T03:25:29.382Z,24.30
2019-01-31T03:28:28.397Z,24.60
2019-01-31T03:31:05.722Z,25.20
2019-01-31T03:34:04.921Z,24.60
2019-01-31T03:36:42.356Z,24.30
2019-01-31T03:39:20.103Z,24.10
2019-01-31T03:41:57.846Z,24.20
2019-01-31T03:44:38.082Z,24.40
2019-01-31T03:47:22.109Z,24.20
2019-01-31T03:49:56.391Z,24.20
2019-01-31T03:52:45.009Z,24.20
2019-01-31T03:55:19.767Z,24.20
2019-01-31T03:57:51.562Z,24.40
2019-01-31T04:00:38.284Z,24.70
2019-01-31T04:03:34.029Z,24.70
2019-01-31T04:06:05.795Z,24.60
2019-01-31T04:08:34.431Z,24.30
2019-01-31T04:11:03.088Z,24.30
2019-01-31T04:13:31.672Z,24.70
2019-01-31T04:16:00.246Z,24.70
2019-01-31T04:18:28.869Z,25.00
2019-01-31T04:20:57.509Z,24.90
2019-01-31T04:23:26.009Z,24.90
2019-01-31T04:25:54.621Z,24.80
2019-01-31T04:28:23.201Z,24.90
2019-01-31T04:30:51.761Z,24.80
2019-01-31T04:33:20.445Z,24.80
2019-01-31T04:35:49.121Z,24.80
2019-01-31T04:38:19.715Z,24.80
2019-01-31T04:40:47.942Z,24.90
2019-01-31T04:43:16.514Z,24.90
2019-01-31T04:45:45.155Z,25.00
2019-01-31T04:48:13.702Z,25.30
2019-01-31T04:50:42.348Z,25.10
2019-01-31T04:53:10.992Z,24.80
2019-01-31T04:55:39.662Z,24.60
2019-01-31T04:58:08.224Z,24.50
2019-01-31T05:00:36.790Z,25.40
2019-01-31T05:03:05.873Z,25.80
2019-01-31T05:05:34.516Z,25.50
2019-01-31T05:08:03.106Z,25.00
2019-01-31T05:10:42.421Z,24.80
2019-01-31T05:13:01.877Z,24.50
2019-01-31T05:15:30.491Z,24.50
2019-01-31T05:17:59.138Z,24.30
2019-01-31T05:20:27.700Z,24.20
2019-01-31T05:22:56.382Z,24.20
2019-01-31T05:25:24.951Z,24.10
2019-01-31T05:27:53.458Z,24.30
2019-01-31T05:30:22.057Z,24.60
2019-01-31T05:32:50.560Z,24.50
2019-01-31T05:35:19.196Z,24.40
2019-01-31T05:37:47.828Z,24.90
2019-01-31T05:40:16.318Z,25.00
2019-01-31T05:42:44.963Z,25.20
2019-01-31T05:45:15.253Z,24.90
2019-01-31T05:47:43.894Z,24.70
2019-01-31T05:50:14.575Z,40.80
2019-01-31T05:52:43.192Z,25.00
2019-01-31T05:55:12.354Z,29.30
2019-01-31T06:00:18.955Z,37.50
2019-01-31T06:02:47.600Z,38.00
2019-01-31T06:05:16.105Z,36.80
2019-01-31T06:07:44.727Z,26.50
2019-01-31T06:10:13.400Z,25.60
2019-01-31T06:12:41.981Z,26.70
2019-01-31T06:17:43.519Z,25.00
2019-01-31T06:20:15.323Z,25.30
2019-01-31T06:25:12.189Z,29.30
2019-01-31T06:27:41.135Z,29.40
2019-01-31T06:30:12.846Z,30.80
2019-01-31T06:32:41.488Z,25.80
2019-01-31T06:35:11.532Z,26.60
2019-01-31T06:37:40.217Z,26.50
2019-01-31T06:40:12.062Z,26.30
2019-01-31T06:42:40.715Z,26.90
2019-01-31T06:45:12.623Z,26.90
2019-01-31T06:47:41.219Z,26.80
2019-01-31T06:50:10.005Z,26.80
2019-01-31T06:52:38.614Z,26.20
2019-01-31T06:55:09.180Z,25.80
2019-01-31T06:57:37.831Z,25.30
2019-01-31T07:00:12.651Z,25.70
2019-01-31T07:02:41.301Z,25.30
2019-01-31T07:05:09.877Z,25.20
2019-01-31T07:07:38.414Z,25.20
2019-01-31T07:10:21.814Z,25.50
2019-01-31T07:12:51.308Z,25.60
2019-01-31T07:15:20.067Z,26.50
2019-01-31T07:17:48.712Z,26.70
2019-01-31T07:20:17.926Z,26.60
2019-01-31T07:22:46.573Z,26.20
2019-01-31T07:25:18.668Z,26.00
2019-01-31T07:27:47.289Z,25.60
2019-01-31T07:30:20.855Z,25.40
2019-01-31T07:32:49.510Z,24.90
2019-01-31T07:35:18.193Z,25.10
2019-01-31T07:37:46.753Z,24.70
2019-01-31T07:40:20.296Z,24.50
2019-01-31T07:42:48.858Z,24.50
2019-01-31T07:45:22.625Z,23.80
2019-01-31T07:47:51.711Z,23.70
2019-01-31T07:50:20.516Z,23.40
2019-01-31T07:52:49.167Z,23.20
2019-01-31T07:55:17.933Z,23.30
2019-01-31T07:57:46.558Z,23.10
2019-01-31T08:00:17.885Z,23.20
2019-01-31T08:02:46.450Z,24.20
2019-01-31T08:05:17.152Z,24.60
2019-01-31T08:07:45.743Z,25.10
2019-01-31T08:10:20.481Z,25.50
2019-01-31T08:12:49.055Z,25.00
2019-01-31T08:15:18.908Z,24.80
2019-01-31T08:17:47.543Z,24.40
2019-01-31T08:20:17.783Z,24.50
2019-01-31T08:22:46.445Z,24.30
2019-01-31T08:25:18.237Z,23.80
2019-01-31T08:27:46.893Z,24.40
2019-01-31T08:30:27.769Z,25.00
2019-01-31T08:32:56.347Z,25.20
2019-01-31T08:35:24.929Z,25.00
2019-01-31T08:37:54.561Z,25.00
2019-01-31T08:40:23.221Z,24.80
2019-01-31T08:42:51.870Z,24.50
2019-01-31T08:45:20.477Z,24.20
2019-01-31T08:47:49.119Z,23.90
2019-01-31T08:50:28.839Z,23.50
2019-01-31T08:52:57.483Z,24.30
2019-01-31T08:55:26.430Z,23.90
2019-01-31T08:57:55.115Z,23.90
2019-01-31T09:00:31.115Z,23.50
2019-01-31T09:02:59.800Z,23.80
2019-01-31T09:05:28.478Z,23.40
2019-01-31T09:07:57.418Z,23.10
2019-01-31T09:10:29.259Z,24.10
2019-01-31T09:12:58.882Z,23.60
2019-01-31T09:15:27.558Z,23.30
2019-01-31T09:17:56.165Z,23.20
2019-01-31T09:20:37.021Z,23.70
2019-01-31T09:23:11.853Z,23.70
2019-01-31T09:25:43.612Z,23.50
2019-01-31T09:28:20.759Z,23.20
2019-01-31T09:31:15.035Z,23.00
2019-01-31T09:33:55.765Z,23.00
2019-01-31T09:36:30.472Z,23.70
2019-01-31T09:39:20.476Z,23.70
2019-01-31T09:41:57.891Z,23.10
2019-01-31T09:44:35.105Z,22.70
2019-01-31T09:47:21.706Z,22.70
2019-01-31T09:50:17.667Z,22.70
2019-01-31T09:52:55.010Z,23.60
2019-01-31T09:55:43.407Z,24.10
2019-01-31T09:58:34.846Z,23.90
2019-01-31T10:01:40.282Z,24.20
2019-01-31T10:04:15.127Z,27.50
2019-01-31T10:06:55.915Z,25.90
2019-01-31T10:09:30.890Z,25.30
2019-01-31T10:12:18.093Z,24.60
2019-01-31T10:15:06.259Z,23.80
2019-01-31T10:17:54.519Z,23.50
2019-01-31T10:20:41.667Z,24.00
2019-01-31T10:23:28.496Z,23.90
2019-01-31T10:26:06.455Z,23.50
2019-01-31T10:28:56.386Z,22.90
2019-01-31T10:31:36.959Z,23.10
2019-01-31T10:34:11.556Z,22.90
2019-01-31T10:36:49.137Z,22.60
2019-01-31T10:39:49.532Z,22.60
2019-01-31T10:42:33.389Z,24.00
2019-01-31T10:45:22.797Z,24.50
2019-01-31T10:47:55.964Z,24.00
2019-01-31T10:50:27.777Z,24.50
2019-01-31T10:53:02.504Z,23.60
2019-01-31T10:55:58.411Z,23.40
2019-01-31T10:58:48.057Z,23.50
2019-01-31T11:01:31.873Z,23.30
2019-01-31T11:04:27.709Z,23.70
2019-01-31T11:07:11.521Z,23.50
2019-01-31T11:10:15.051Z,23.10
2019-01-31T11:13:10.913Z,23.00
2019-01-31T11:15:54.036Z,22.70
2019-01-31T11:19:05.341Z,22.90
2019-01-31T11:21:31.142Z,22.40
2019-01-31T11:24:17.648Z,22.10
2019-01-31T11:26:49.339Z,21.90
2019-01-31T11:29:50.862Z,21.90
2019-01-31T11:32:49.621Z,21.90
2019-01-31T11:35:50.563Z,21.30
2019-01-31T11:38:37.549Z,20.70
2019-01-31T11:41:24.226Z,20.20
2019-01-31T11:44:13.235Z,20.60
2019-01-31T11:46:44.981Z,20.60
2019-01-31T11:49:19.254Z,20.90
2019-01-31T11:52:08.932Z,20.90
2019-01-31T11:54:46.711Z,20.50
2019-01-31T11:57:21.493Z,20.30
2019-01-31T11:59:50.142Z,20.20
2019-01-31T12:02:18.712Z,19.80
2019-01-31T12:04:47.331Z,20.30
2019-01-31T12:07:15.982Z,20.10
2019-01-31T12:09:44.951Z,20.10
2019-01-31T12:12:13.849Z,19.80
2019-01-31T12:14:42.421Z,19.40
2019-01-31T12:17:10.917Z,19.90
2019-01-31T12:19:39.584Z,19.90
2019-01-31T12:22:08.326Z,19.60
2019-01-31T12:24:36.895Z,19.70
2019-01-31T12:27:05.441Z,19.90
2019-01-31T12:29:33.937Z,19.90
2019-01-31T12:32:02.444Z,19.90
2019-01-31T12:34:31.061Z,19.40
2019-01-31T12:36:59.568Z,19.30
2019-01-31T12:39:28.147Z,19.20
2019-01-31T12:41:56.757Z,19.10
2019-01-31T12:44:25.405Z,19.80
2019-01-31T12:46:53.998Z,19.90
2019-01-31T12:49:22.571Z,19.60
2019-01-31T12:51:51.209Z,19.60
2019-01-31T12:54:19.770Z,20.10
2019-01-31T12:56:48.383Z,20.00
2019-01-31T12:59:16.944Z,19.90
2019-01-31T13:01:45.507Z,20.10
2019-01-31T13:04:14.196Z,20.40
2019-01-31T13:06:42.768Z,21.40
2019-01-31T13:09:11.403Z,21.80
2019-01-31T13:11:40.024Z,21.20
2019-01-31T13:14:08.657Z,20.70
2019-01-31T13:16:37.234Z,21.40
2019-01-31T13:19:05.917Z,21.60
2019-01-31T13:21:34.419Z,21.20
2019-01-31T13:24:03.057Z,20.60
2019-01-31T13:26:31.807Z,20.40
2019-01-31T13:29:00.477Z,20.20
2019-01-31T13:31:29.041Z,20.30
2019-01-31T13:33:57.782Z,20.30
2019-01-31T13:36:26.349Z,20.10
2019-01-31T13:38:54.987Z,20.00
2019-01-31T13:41:23.532Z,20.00
2019-01-31T13:43:57.751Z,19.80
2019-01-31T13:46:22.690Z,19.80
2019-01-31T13:48:51.313Z,19.90
2019-01-31T13:51:19.948Z,19.90
2019-01-31T13:53:48.517Z,19.90
2019-01-31T13:56:17.135Z,19.90
2019-01-31T13:58:45.774Z,20.20
2019-01-31T14:01:14.346Z,20.30
2019-01-31T14:03:43.098Z,20.60
2019-01-31T14:06:11.649Z,20.60
2019-01-31T14:08:40.155Z,21.10
2019-01-31T14:11:08.702Z,20.90
2019-01-31T14:13:37.291Z,20.70
2019-01-31T14:16:05.862Z,20.50
2019-01-31T14:18:34.482Z,20.60
2019-01-31T14:21:03.043Z,20.80
2019-01-31T14:23:31.693Z,21.10
2019-01-31T14:26:00.358Z,20.70
2019-01-31T14:28:29.363Z,20.70
2019-01-31T14:30:57.849Z,20.90
2019-01-31T14:33:26.639Z,21.30
2019-01-31T14:35:57.916Z,21.70
2019-01-31T14:38:26.721Z,22.20
2019-01-31T14:40:55.804Z,22.20
2019-01-31T14:43:24.421Z,22.30
2019-01-31T14:45:52.986Z,23.10
2019-01-31T14:48:21.595Z,22.90
2019-01-31T14:50:50.171Z,22.80
2019-01-31T14:53:18.836Z,22.30
2019-01-31T14:55:47.525Z,22.00
2019-01-31T14:58:16.087Z,22.00
2019-01-31T15:00:45.311Z,21.70
2019-01-31T15:03:14.351Z,21.60
2019-01-31T15:05:42.982Z,21.60
2019-01-31T15:08:11.556Z,21.50
2019-01-31T15:10:40.227Z,21.30
2019-01-31T15:13:08.877Z,21.10
2019-01-31T15:15:37.520Z,21.10
2019-01-31T15:18:06.908Z,21.00
2019-01-31T15:20:40.824Z,21.00
2019-01-31T15:23:09.498Z,20.90
2019-01-31T15:25:38.136Z,20.80
2019-01-31T15:28:06.783Z,20.80
2019-01-31T15:30:36.456Z,20.80
2019-01-31T15:33:09.802Z,20.80
2019-01-31T15:35:38.446Z,20.80
2019-01-31T15:38:07.158Z,21.30
2019-01-31T15:40:41.451Z,20.90
2019-01-31T15:43:10.111Z,21.00
2019-01-31T15:45:38.792Z,21.20
2019-01-31T15:48:10.539Z,21.70
2019-01-31T15:50:38.336Z,21.60
2019-01-31T15:53:07.910Z,22.10
2019-01-31T15:55:36.626Z,21.50
2019-01-31T15:58:05.963Z,21.40
2019-01-31T16:00:41.731Z,21.50
2019-01-31T16:03:12.185Z,21.50
2019-01-31T16:05:40.760Z,21.60
2019-01-31T16:08:10.056Z,21.50
2019-01-31T16:10:38.733Z,21.50
2019-01-31T16:13:07.334Z,21.50
2019-01-31T16:15:36.008Z,21.70
2019-01-31T16:18:05.034Z,21.40
2019-01-31T16:20:33.606Z,21.40
2019-01-31T16:23:02.212Z,21.40
2019-01-31T16:25:30.787Z,21.40
2019-01-31T16:27:59.422Z,21.30
2019-01-31T16:30:28.108Z,21.20
2019-01-31T16:32:56.739Z,21.20
2019-01-31T16:35:25.386Z,21.20
2019-01-31T16:37:54.076Z,21.10
2019-01-31T16:40:22.638Z,21.10
2019-01-31T16:42:51.277Z,21.10
2019-01-31T16:45:19.961Z,21.10
2019-01-31T16:47:48.592Z,21.00
2019-01-31T16:50:19.701Z,20.90
2019-01-31T16:52:48.394Z,21.00
2019-01-31T16:55:22.670Z,21.20
2019-01-31T16:57:51.302Z,21.30
2019-01-31T17:00:40.887Z,21.40
2019-01-31T17:03:09.534Z,21.40
2019-01-31T17:05:38.184Z,21.40
2019-01-31T17:08:06.872Z,21.50
2019-01-31T17:10:35.513Z,21.50
2019-01-31T17:13:05.186Z,21.60
2019-01-31T17:15:33.887Z,21.60
2019-01-31T17:18:02.523Z,21.60
2019-01-31T17:20:33.927Z,22.00
2019-01-31T17:23:02.627Z,22.10
2019-01-31T17:25:31.196Z,21.80
2019-01-31T17:27:59.701Z,21.60
2019-01-31T17:30:29.209Z,21.60
2019-01-31T17:33:00.247Z,21.60
2019-01-31T17:35:28.074Z,21.60
2019-01-31T17:37:56.754Z,21.70
2019-01-31T17:40:33.733Z,21.70
2019-01-31T17:43:02.357Z,21.70
2019-01-31T17:45:31.135Z,21.60
2019-01-31T17:47:59.818Z,21.60
2019-01-31T17:50:28.492Z,21.80
2019-01-31T17:52:57.124Z,21.70
2019-01-31T17:55:27.196Z,21.70
2019-01-31T17:57:55.830Z,21.70
2019-01-31T18:00:34.205Z,21.60
2019-01-31T18:03:02.897Z,21.90
2019-01-31T18:05:31.474Z,21.80
2019-01-31T18:08:00.114Z,21.90
2019-01-31T18:10:28.731Z,21.80
2019-01-31T18:12:57.709Z,21.80
2019-01-31T18:15:26.344Z,22.10
2019-01-31T18:17:55.335Z,22.30
2019-01-31T18:20:24.426Z,22.10
2019-01-31T18:22:52.998Z,22.30
2019-01-31T18:25:21.998Z,22.40
2019-01-31T18:27:53.141Z,22.50
2019-01-31T18:30:26.093Z,22.50
2019-01-31T18:32:54.682Z,22.50
2019-01-31T18:35:23.244Z,22.70
2019-01-31T18:37:51.852Z,22.90
2019-01-31T18:40:26.261Z,22.70
2019-01-31T18:42:55.242Z,22.70
2019-01-31T18:45:26.931Z,22.70
2019-01-31T18:47:55.560Z,22.40
2019-01-31T18:50:26.037Z,22.40
2019-01-31T18:52:54.663Z,22.10
2019-01-31T18:55:23.239Z,22.10
2019-01-31T18:57:51.816Z,22.30
2019-01-31T19:00:31.902Z,22.20
2019-01-31T19:03:00.487Z,22.90
2019-01-31T19:05:29.162Z,22.20
2019-01-31T19:07:57.787Z,22.20
2019-01-31T19:10:26.281Z,22.50
2019-01-31T19:12:54.854Z,22.10
2019-01-31T19:15:24.973Z,22.80
2019-01-31T19:18:04.951Z,22.70
2019-01-31T19:20:26.706Z,22.70
2019-01-31T19:22:55.803Z,22.40
2019-01-31T19:25:24.383Z,22.30
2019-01-31T19:27:53.025Z,22.40
2019-01-31T19:30:38.586Z,22.30
2019-01-31T19:33:07.764Z,22.30
2019-01-31T19:35:36.633Z,22.20
2019-01-31T19:38:06.169Z,22.50
2019-01-31T19:40:36.851Z,22.70
2019-01-31T19:43:05.598Z,22.70
2019-01-31T19:45:36.807Z,22.80
2019-01-31T19:48:05.597Z,22.60
2019-01-31T19:50:34.149Z,22.50
2019-01-31T19:53:03.311Z,22.70
2019-01-31T19:55:32.321Z,23.00
2019-01-31T19:58:00.892Z,22.90
2019-01-31T20:00:29.573Z,23.10
2019-01-31T20:02:58.593Z,22.90
2019-01-31T20:05:28.376Z,22.70
2019-01-31T20:07:56.989Z,22.70
2019-01-31T20:10:27.644Z,23.10
2019-01-31T20:12:56.487Z,22.90
2019-01-31T20:15:25.179Z,22.70
2019-01-31T20:17:53.828Z,22.70
2019-01-31T20:20:24.950Z,22.50
2019-01-31T20:22:54.148Z,22.80
2019-01-31T20:25:22.787Z,22.60
2019-01-31T20:27:51.424Z,22.80
2019-01-31T20:30:24.915Z,22.90
2019-01-31T20:32:53.556Z,22.60
2019-01-31T20:35:23.236Z,22.60
2019-01-31T20:37:51.868Z,22.50
2019-01-31T20:40:32.090Z,22.40
2019-01-31T20:43:00.772Z,22.40
2019-01-31T20:45:29.282Z,22.30
2019-01-31T20:47:58.088Z,22.30
2019-01-31T20:50:28.674Z,22.20
2019-01-31T20:52:57.407Z,22.10
2019-01-31T20:55:26.087Z,22.30
2019-01-31T20:57:54.766Z,22.20
2019-01-31T21:00:33.906Z,22.30
2019-01-31T21:03:02.935Z,22.40
2019-01-31T21:05:31.532Z,22.30
2019-01-31T21:08:00.193Z,22.30
2019-01-31T21:10:28.815Z,22.30
2019-01-31T21:12:57.384Z,22.60
2019-01-31T21:15:26.347Z,22.40
2019-01-31T21:17:55.066Z,22.50
2019-01-31T21:20:26.510Z,22.30
2019-01-31T21:22:55.458Z,22.30
2019-01-31T21:25:24.167Z,22.00
2019-01-31T21:27:53.151Z,22.00
2019-01-31T21:30:36.077Z,22.10
2019-01-31T21:33:06.273Z,22.10
2019-01-31T21:35:34.851Z,22.00
2019-01-31T21:38:03.555Z,22.20
2019-01-31T21:40:34.018Z,22.20
2019-01-31T21:43:02.688Z,22.50
2019-01-31T21:45:31.386Z,22.20
2019-01-31T21:48:00.034Z,22.20
2019-01-31T21:50:31.391Z,22.60
2019-01-31T21:53:00.103Z,22.40
2019-01-31T21:55:28.724Z,22.30
2019-01-31T21:57:57.377Z,22.30
2019-01-31T22:00:28.736Z,22.40
2019-01-31T22:02:57.382Z,22.30
2019-01-31T22:05:25.967Z,22.50
2019-01-31T22:07:54.573Z,22.40
2019-01-31T22:10:23.212Z,22.30
2019-01-31T22:12:51.854Z,22.40
2019-01-31T22:15:25.491Z,22.40
2019-01-31T22:17:57.145Z,22.30
2019-01-31T22:20:24.491Z,22.10
2019-01-31T22:22:53.127Z,22.70
2019-01-31T22:25:22.580Z,22.70
2019-01-31T22:27:51.218Z,22.40
2019-01-31T22:30:22.105Z,22.70
2019-01-31T22:32:50.751Z,22.70
2019-01-31T22:35:19.322Z,23.30
2019-01-31T22:37:47.934Z,23.30
2019-01-31T22:40:17.370Z,23.40
2019-01-31T22:42:45.960Z,23.50
2019-01-31T22:45:16.571Z,23.80
2019-01-31T22:47:45.219Z,23.90
2019-01-31T22:50:16.321Z,23.90
2019-01-31T22:52:44.927Z,23.70
2019-01-31T22:55:15.700Z,24.30
2019-01-31T22:57:44.683Z,25.00
2019-01-31T23:00:25.103Z,24.60
2019-01-31T23:02:53.608Z,24.30
2019-01-31T23:05:22.258Z,23.80
2019-01-31T23:07:51.709Z,23.50
2019-01-31T23:10:20.422Z,23.30
2019-01-31T23:12:48.984Z,23.20
2019-01-31T23:15:17.667Z,22.90
2019-01-31T23:17:46.724Z,23.00
2019-01-31T23:20:15.364Z,22.90
2019-01-31T23:22:44.038Z,22.80
2019-01-31T23:25:15.505Z,22.70
2019-01-31T23:27:44.061Z,22.60
2019-01-31T23:30:16.158Z,22.40
2019-01-31T23:32:44.737Z,22.30
2019-01-31T23:35:13.230Z,22.20
2019-01-31T23:37:41.913Z,22.20
2019-01-31T23:40:11.694Z,22.20
2019-01-31T23:42:40.325Z,22.40
2019-01-31T23:45:14.389Z,22.20
2019-01-31T23:47:49.019Z,22.60
2019-01-31T23:50:15.065Z,22.20
2019-01-31T23:52:43.356Z,22.30
2019-01-31T23:55:14.293Z,22.40
2019-01-31T23:57:42.845Z,22.70
